sensor_id;sensor_type;location;lat;lon;timestamp;P1;durP1;ratioP1;P2;durP2;ratioP2
3843;SDS011;1937;51.444;6.484;2022-12-18T00:00:22;28.63;;;10.07;;
3843;SDS011;1937;51.444;6.484;2022-12-18T00:02:52;19.53;;;10.80;;
3843;SDS011;1937;51.444;6.484;2022-12-18T00:05:21;20.10;;;10.30;;
3843;SDS011;1937;51.444;6.484;2022-12-18T00:07:50;23.77;;;11.20;;
3843;SDS011;1937;51.444;6.484;2022-12-18T00:10:18;29.57;;;12.20;;
3843;SDS011;1937;51.444;6.484;2022-12-18T00:12:46;19.33;;;9.53;;
3843;SDS011;1937;51.444;6.484;2022-12-18T00:15:15;16.13;;;9.93;;
3843;SDS011;1937;51.444;6.484;2022-12-18T00:17:44;23.53;;;12.50;;
3843;SDS011;1937;51.444;6.484;2022-12-18T00:20:15;22.50;;;10.57;;
3843;SDS011;1937;51.444;6.484;2022-12-18T00:22:50;17.73;;;10.30;;
3843;SDS011;1937;51.444;6.484;2022-12-18T00:25:19;20.20;;;10.00;;
3843;SDS011;1937;51.444;6.484;2022-12-18T00:27:48;19.97;;;9.30;;
3843;SDS011;1937;51.444;6.484;2022-12-18T00:30:19;21.67;;;10.07;;
3843;SDS011;1937;51.444;6.484;2022-12-18T00:32:50;20.40;;;9.63;;
3843;SDS011;1937;51.444;6.484;2022-12-18T00:35:19;29.77;;;12.03;;
3843;SDS011;1937;51.444;6.484;2022-12-18T00:37:47;23.80;;;11.17;;
3843;SDS011;1937;51.444;6.484;2022-12-18T00:40:15;19.63;;;10.27;;
3843;SDS011;1937;51.444;6.484;2022-12-18T00:42:44;29.67;;;11.10;;
3843;SDS011;1937;51.444;6.484;2022-12-18T00:45:20;24.70;;;11.20;;
3843;SDS011;1937;51.444;6.484;2022-12-18T00:47:51;15.87;;;9.40;;
3843;SDS011;1937;51.444;6.484;2022-12-18T00:50:20;17.53;;;11.33;;
3843;SDS011;1937;51.444;6.484;2022-12-18T00:52:50;32.50;;;14.77;;
3843;SDS011;1937;51.444;6.484;2022-12-18T00:55:19;24.67;;;12.03;;
3843;SDS011;1937;51.444;6.484;2022-12-18T00:57:47;33.40;;;11.90;;
3843;SDS011;1937;51.444;6.484;2022-12-18T01:00:16;16.60;;;9.53;;
3843;SDS011;1937;51.444;6.484;2022-12-18T01:02:45;25.03;;;12.73;;
3843;SDS011;1937;51.444;6.484;2022-12-18T01:05:15;17.37;;;9.67;;
3843;SDS011;1937;51.444;6.484;2022-12-18T01:07:44;23.37;;;9.37;;
3843;SDS011;1937;51.444;6.484;2022-12-18T01:10:12;18.63;;;9.20;;
3843;SDS011;1937;51.444;6.484;2022-12-18T01:12:41;13.63;;;8.17;;
3843;SDS011;1937;51.444;6.484;2022-12-18T01:15:10;13.07;;;7.50;;
3843;SDS011;1937;51.444;6.484;2022-12-18T01:17:40;15.47;;;7.97;;
3843;SDS011;1937;51.444;6.484;2022-12-18T01:20:09;19.63;;;9.57;;
3843;SDS011;1937;51.444;6.484;2022-12-18T01:22:41;15.90;;;9.27;;
3843;SDS011;1937;51.444;6.484;2022-12-18T01:25:09;18.23;;;8.40;;
3843;SDS011;1937;51.444;6.484;2022-12-18T01:27:37;15.50;;;7.87;;
3843;SDS011;1937;51.444;6.484;2022-12-18T01:30:06;20.97;;;9.73;;
3843;SDS011;1937;51.444;6.484;2022-12-18T01:32:36;17.80;;;9.23;;
3843;SDS011;1937;51.444;6.484;2022-12-18T01:35:04;13.67;;;8.10;;
3843;SDS011;1937;51.444;6.484;2022-12-18T01:37:34;14.57;;;8.37;;
3843;SDS011;1937;51.444;6.484;2022-12-18T01:40:05;14.80;;;8.27;;
3843;SDS011;1937;51.444;6.484;2022-12-18T01:42:36;20.63;;;7.60;;
3843;SDS011;1937;51.444;6.484;2022-12-18T01:45:06;15.80;;;8.40;;
3843;SDS011;1937;51.444;6.484;2022-12-18T01:47:47;12.87;;;7.37;;
3843;SDS011;1937;51.444;6.484;2022-12-18T01:50:19;16.07;;;8.47;;
3843;SDS011;1937;51.444;6.484;2022-12-18T01:52:51;14.47;;;8.17;;
3843;SDS011;1937;51.444;6.484;2022-12-18T01:55:24;15.80;;;9.17;;
3843;SDS011;1937;51.444;6.484;2022-12-18T01:57:56;15.87;;;8.00;;
3843;SDS011;1937;51.444;6.484;2022-12-18T02:00:27;15.00;;;8.60;;
3843;SDS011;1937;51.444;6.484;2022-12-18T02:02:55;15.23;;;8.37;;
3843;SDS011;1937;51.444;6.484;2022-12-18T02:05:27;17.20;;;8.47;;
3843;SDS011;1937;51.444;6.484;2022-12-18T02:08:03;13.90;;;7.00;;
3843;SDS011;1937;51.444;6.484;2022-12-18T02:10:38;15.13;;;7.23;;
3843;SDS011;1937;51.444;6.484;2022-12-18T02:13:12;18.30;;;9.63;;
3843;SDS011;1937;51.444;6.484;2022-12-18T02:15:48;13.70;;;7.30;;
3843;SDS011;1937;51.444;6.484;2022-12-18T02:18:23;13.47;;;8.07;;
3843;SDS011;1937;51.444;6.484;2022-12-18T02:20:58;16.37;;;6.83;;
3843;SDS011;1937;51.444;6.484;2022-12-18T02:23:39;11.80;;;7.77;;
3843;SDS011;1937;51.444;6.484;2022-12-18T02:26:19;12.83;;;8.00;;
3843;SDS011;1937;51.444;6.484;2022-12-18T02:28:53;14.10;;;7.23;;
3843;SDS011;1937;51.444;6.484;2022-12-18T02:31:27;15.70;;;7.53;;
3843;SDS011;1937;51.444;6.484;2022-12-18T02:34:02;15.43;;;8.10;;
3843;SDS011;1937;51.444;6.484;2022-12-18T02:36:32;21.80;;;8.40;;
3843;SDS011;1937;51.444;6.484;2022-12-18T02:39:04;12.10;;;7.37;;
3843;SDS011;1937;51.444;6.484;2022-12-18T02:41:37;11.27;;;7.00;;
3843;SDS011;1937;51.444;6.484;2022-12-18T02:44:07;12.97;;;8.27;;
3843;SDS011;1937;51.444;6.484;2022-12-18T02:46:37;14.57;;;7.53;;
3843;SDS011;1937;51.444;6.484;2022-12-18T02:49:11;16.13;;;7.90;;
3843;SDS011;1937;51.444;6.484;2022-12-18T02:51:51;14.50;;;7.77;;
3843;SDS011;1937;51.444;6.484;2022-12-18T02:54:35;16.77;;;8.30;;
3843;SDS011;1937;51.444;6.484;2022-12-18T02:57:13;14.50;;;7.70;;
3843;SDS011;1937;51.444;6.484;2022-12-18T02:59:48;17.00;;;8.67;;
3843;SDS011;1937;51.444;6.484;2022-12-18T03:02:23;13.60;;;7.47;;
3843;SDS011;1937;51.444;6.484;2022-12-18T03:05:01;17.47;;;7.97;;
3843;SDS011;1937;51.444;6.484;2022-12-18T03:07:35;14.60;;;8.50;;
3843;SDS011;1937;51.444;6.484;2022-12-18T03:10:09;16.27;;;7.53;;
3843;SDS011;1937;51.444;6.484;2022-12-18T03:12:44;12.27;;;6.70;;
3843;SDS011;1937;51.444;6.484;2022-12-18T03:15:18;17.43;;;8.30;;
3843;SDS011;1937;51.444;6.484;2022-12-18T03:17:52;14.53;;;7.90;;
3843;SDS011;1937;51.444;6.484;2022-12-18T03:20:23;18.53;;;8.40;;
3843;SDS011;1937;51.444;6.484;2022-12-18T03:22:55;16.00;;;7.83;;
3843;SDS011;1937;51.444;6.484;2022-12-18T03:25:28;17.93;;;8.17;;
3843;SDS011;1937;51.444;6.484;2022-12-18T03:28:01;12.80;;;8.13;;
3843;SDS011;1937;51.444;6.484;2022-12-18T03:30:33;16.87;;;8.23;;
3843;SDS011;1937;51.444;6.484;2022-12-18T03:33:07;17.23;;;7.60;;
3843;SDS011;1937;51.444;6.484;2022-12-18T03:35:43;13.43;;;7.53;;
3843;SDS011;1937;51.444;6.484;2022-12-18T03:38:12;15.50;;;8.87;;
3843;SDS011;1937;51.444;6.484;2022-12-18T03:40:43;19.10;;;7.87;;
3843;SDS011;1937;51.444;6.484;2022-12-18T03:43:20;15.93;;;7.80;;
3843;SDS011;1937;51.444;6.484;2022-12-18T03:46:00;14.33;;;7.43;;
3843;SDS011;1937;51.444;6.484;2022-12-18T03:48:34;18.03;;;8.10;;
3843;SDS011;1937;51.444;6.484;2022-12-18T03:51:10;19.17;;;7.77;;
3843;SDS011;1937;51.444;6.484;2022-12-18T03:53:45;15.23;;;8.13;;
3843;SDS011;1937;51.444;6.484;2022-12-18T03:56:18;14.47;;;7.23;;
3843;SDS011;1937;51.444;6.484;2022-12-18T03:58:54;10.33;;;7.00;;
3843;SDS011;1937;51.444;6.484;2022-12-18T04:01:25;17.70;;;7.10;;
3843;SDS011;1937;51.444;6.484;2022-12-18T04:03:59;15.73;;;8.20;;
3843;SDS011;1937;51.444;6.484;2022-12-18T04:06:29;8.90;;;6.53;;
3843;SDS011;1937;51.444;6.484;2022-12-18T04:08:58;15.93;;;8.07;;
3843;SDS011;1937;51.444;6.484;2022-12-18T04:11:27;20.17;;;8.30;;
3843;SDS011;1937;51.444;6.484;2022-12-18T04:13:57;12.23;;;7.63;;
3843;SDS011;1937;51.444;6.484;2022-12-18T04:16:25;12.77;;;8.00;;
3843;SDS011;1937;51.444;6.484;2022-12-18T04:18:54;14.40;;;7.60;;
3843;SDS011;1937;51.444;6.484;2022-12-18T04:21:22;15.73;;;8.20;;
3843;SDS011;1937;51.444;6.484;2022-12-18T04:23:50;12.30;;;7.60;;
3843;SDS011;1937;51.444;6.484;2022-12-18T04:26:19;14.93;;;7.47;;
3843;SDS011;1937;51.444;6.484;2022-12-18T04:28:47;14.17;;;7.93;;
3843;SDS011;1937;51.444;6.484;2022-12-18T04:31:17;17.00;;;7.87;;
3843;SDS011;1937;51.444;6.484;2022-12-18T04:33:45;11.73;;;7.13;;
3843;SDS011;1937;51.444;6.484;2022-12-18T04:36:14;11.37;;;7.50;;
3843;SDS011;1937;51.444;6.484;2022-12-18T04:38:42;10.70;;;7.03;;
3843;SDS011;1937;51.444;6.484;2022-12-18T04:41:10;12.33;;;6.70;;
3843;SDS011;1937;51.444;6.484;2022-12-18T04:43:39;13.77;;;6.47;;
3843;SDS011;1937;51.444;6.484;2022-12-18T04:46:07;10.67;;;6.70;;
3843;SDS011;1937;51.444;6.484;2022-12-18T04:48:37;15.77;;;8.00;;
3843;SDS011;1937;51.444;6.484;2022-12-18T04:51:05;14.07;;;7.27;;
3843;SDS011;1937;51.444;6.484;2022-12-18T04:53:34;9.10;;;5.57;;
3843;SDS011;1937;51.444;6.484;2022-12-18T04:56:03;12.93;;;7.23;;
3843;SDS011;1937;51.444;6.484;2022-12-18T04:58:34;14.80;;;6.87;;
3843;SDS011;1937;51.444;6.484;2022-12-18T05:01:04;10.03;;;6.00;;
3843;SDS011;1937;51.444;6.484;2022-12-18T05:03:33;12.13;;;6.53;;
3843;SDS011;1937;51.444;6.484;2022-12-18T05:06:04;9.60;;;6.63;;
3843;SDS011;1937;51.444;6.484;2022-12-18T05:08:34;12.80;;;6.20;;
3843;SDS011;1937;51.444;6.484;2022-12-18T05:11:03;15.40;;;6.70;;
3843;SDS011;1937;51.444;6.484;2022-12-18T05:13:34;8.43;;;5.33;;
3843;SDS011;1937;51.444;6.484;2022-12-18T05:16:03;12.93;;;5.80;;
3843;SDS011;1937;51.444;6.484;2022-12-18T05:18:32;13.93;;;6.60;;
3843;SDS011;1937;51.444;6.484;2022-12-18T05:21:01;11.10;;;5.67;;
3843;SDS011;1937;51.444;6.484;2022-12-18T05:23:31;12.77;;;7.00;;
3843;SDS011;1937;51.444;6.484;2022-12-18T05:26:02;11.33;;;5.87;;
3843;SDS011;1937;51.444;6.484;2022-12-18T05:28:32;10.80;;;5.90;;
3843;SDS011;1937;51.444;6.484;2022-12-18T05:31:02;11.40;;;6.30;;
3843;SDS011;1937;51.444;6.484;2022-12-18T05:33:31;11.17;;;6.57;;
3843;SDS011;1937;51.444;6.484;2022-12-18T05:36:00;11.27;;;7.27;;
3843;SDS011;1937;51.444;6.484;2022-12-18T05:38:32;10.33;;;6.20;;
3843;SDS011;1937;51.444;6.484;2022-12-18T05:41:02;12.80;;;7.70;;
3843;SDS011;1937;51.444;6.484;2022-12-18T05:43:33;10.60;;;7.23;;
3843;SDS011;1937;51.444;6.484;2022-12-18T05:46:05;13.60;;;6.17;;
3843;SDS011;1937;51.444;6.484;2022-12-18T05:48:35;11.70;;;7.30;;
3843;SDS011;1937;51.444;6.484;2022-12-18T05:51:04;12.50;;;7.20;;
3843;SDS011;1937;51.444;6.484;2022-12-18T05:53:36;9.47;;;6.37;;
3843;SDS011;1937;51.444;6.484;2022-12-18T05:56:05;9.10;;;5.47;;
3843;SDS011;1937;51.444;6.484;2022-12-18T05:58:36;9.47;;;6.00;;
3843;SDS011;1937;51.444;6.484;2022-12-18T06:01:08;11.27;;;6.57;;
3843;SDS011;1937;51.444;6.484;2022-12-18T06:03:38;9.47;;;6.20;;
3843;SDS011;1937;51.444;6.484;2022-12-18T06:06:12;7.73;;;5.73;;
3843;SDS011;1937;51.444;6.484;2022-12-18T06:08:43;10.93;;;6.43;;
3843;SDS011;1937;51.444;6.484;2022-12-18T06:11:11;11.43;;;6.87;;
3843;SDS011;1937;51.444;6.484;2022-12-18T06:13:43;11.97;;;6.67;;
3843;SDS011;1937;51.444;6.484;2022-12-18T06:16:12;12.63;;;6.33;;
3843;SDS011;1937;51.444;6.484;2022-12-18T06:18:40;16.37;;;6.70;;
3843;SDS011;1937;51.444;6.484;2022-12-18T06:21:09;14.30;;;6.43;;
3843;SDS011;1937;51.444;6.484;2022-12-18T06:23:37;11.90;;;6.13;;
3843;SDS011;1937;51.444;6.484;2022-12-18T06:26:09;10.07;;;6.13;;
3843;SDS011;1937;51.444;6.484;2022-12-18T06:28:38;13.47;;;8.03;;
3843;SDS011;1937;51.444;6.484;2022-12-18T06:31:08;11.17;;;5.87;;
3843;SDS011;1937;51.444;6.484;2022-12-18T06:33:38;7.90;;;5.60;;
3843;SDS011;1937;51.444;6.484;2022-12-18T06:36:07;10.90;;;5.83;;
3843;SDS011;1937;51.444;6.484;2022-12-18T06:38:38;13.60;;;6.70;;
3843;SDS011;1937;51.444;6.484;2022-12-18T06:41:09;9.40;;;5.80;;
3843;SDS011;1937;51.444;6.484;2022-12-18T06:43:39;13.37;;;6.43;;
3843;SDS011;1937;51.444;6.484;2022-12-18T06:46:08;9.90;;;6.30;;
3843;SDS011;1937;51.444;6.484;2022-12-18T06:48:38;14.67;;;6.50;;
3843;SDS011;1937;51.444;6.484;2022-12-18T06:51:07;10.90;;;5.27;;
3843;SDS011;1937;51.444;6.484;2022-12-18T06:53:36;10.70;;;6.10;;
3843;SDS011;1937;51.444;6.484;2022-12-18T06:56:06;12.37;;;6.53;;
3843;SDS011;1937;51.444;6.484;2022-12-18T06:58:36;14.53;;;6.90;;
3843;SDS011;1937;51.444;6.484;2022-12-18T07:01:06;12.80;;;6.53;;
3843;SDS011;1937;51.444;6.484;2022-12-18T07:03:36;12.03;;;5.03;;
3843;SDS011;1937;51.444;6.484;2022-12-18T07:06:04;13.10;;;7.03;;
3843;SDS011;1937;51.444;6.484;2022-12-18T07:08:39;10.93;;;6.00;;
3843;SDS011;1937;51.444;6.484;2022-12-18T07:11:08;7.60;;;4.90;;
3843;SDS011;1937;51.444;6.484;2022-12-18T07:13:38;10.27;;;6.47;;
3843;SDS011;1937;51.444;6.484;2022-12-18T07:16:08;11.60;;;6.53;;
3843;SDS011;1937;51.444;6.484;2022-12-18T07:18:39;10.37;;;6.07;;
3843;SDS011;1937;51.444;6.484;2022-12-18T07:21:08;12.40;;;6.50;;
3843;SDS011;1937;51.444;6.484;2022-12-18T07:23:37;9.00;;;5.33;;
3843;SDS011;1937;51.444;6.484;2022-12-18T07:26:07;14.50;;;6.07;;
3843;SDS011;1937;51.444;6.484;2022-12-18T07:28:39;8.33;;;5.70;;
3843;SDS011;1937;51.444;6.484;2022-12-18T07:31:10;12.40;;;6.53;;
3843;SDS011;1937;51.444;6.484;2022-12-18T07:33:40;9.70;;;5.93;;
3843;SDS011;1937;51.444;6.484;2022-12-18T07:36:08;11.70;;;5.10;;
3843;SDS011;1937;51.444;6.484;2022-12-18T07:38:39;10.53;;;6.13;;
3843;SDS011;1937;51.444;6.484;2022-12-18T07:41:08;8.13;;;5.87;;
3843;SDS011;1937;51.444;6.484;2022-12-18T07:43:39;9.50;;;5.63;;
3843;SDS011;1937;51.444;6.484;2022-12-18T07:46:09;12.43;;;5.90;;
3843;SDS011;1937;51.444;6.484;2022-12-18T07:48:39;16.40;;;6.07;;
3843;SDS011;1937;51.444;6.484;2022-12-18T07:51:08;9.90;;;6.13;;
3843;SDS011;1937;51.444;6.484;2022-12-18T07:53:37;15.90;;;7.47;;
3843;SDS011;1937;51.444;6.484;2022-12-18T07:56:09;12.77;;;7.07;;
3843;SDS011;1937;51.444;6.484;2022-12-18T07:58:40;9.63;;;5.97;;
3843;SDS011;1937;51.444;6.484;2022-12-18T08:01:10;9.53;;;5.60;;
3843;SDS011;1937;51.444;6.484;2022-12-18T08:03:39;9.17;;;6.30;;
3843;SDS011;1937;51.444;6.484;2022-12-18T08:06:08;13.40;;;7.40;;
3843;SDS011;1937;51.444;6.484;2022-12-18T08:08:37;14.23;;;8.00;;
3843;SDS011;1937;51.444;6.484;2022-12-18T08:11:07;12.37;;;6.50;;
3843;SDS011;1937;51.444;6.484;2022-12-18T08:13:36;19.83;;;7.17;;
3843;SDS011;1937;51.444;6.484;2022-12-18T08:16:06;11.90;;;6.23;;
3843;SDS011;1937;51.444;6.484;2022-12-18T08:18:36;13.70;;;6.57;;
3843;SDS011;1937;51.444;6.484;2022-12-18T08:21:09;15.50;;;6.93;;
3843;SDS011;1937;51.444;6.484;2022-12-18T08:23:38;15.27;;;6.43;;
3843;SDS011;1937;51.444;6.484;2022-12-18T08:26:07;10.67;;;6.53;;
3843;SDS011;1937;51.444;6.484;2022-12-18T08:28:36;13.20;;;6.93;;
3843;SDS011;1937;51.444;6.484;2022-12-18T08:31:06;12.47;;;7.70;;
3843;SDS011;1937;51.444;6.484;2022-12-18T08:33:35;15.10;;;7.93;;
3843;SDS011;1937;51.444;6.484;2022-12-18T08:36:05;11.73;;;7.47;;
3843;SDS011;1937;51.444;6.484;2022-12-18T08:38:34;12.83;;;6.60;;
3843;SDS011;1937;51.444;6.484;2022-12-18T08:41:03;16.87;;;8.63;;
3843;SDS011;1937;51.444;6.484;2022-12-18T08:43:34;12.27;;;6.80;;
3843;SDS011;1937;51.444;6.484;2022-12-18T08:46:22;14.93;;;7.40;;
3843;SDS011;1937;51.444;6.484;2022-12-18T08:48:51;12.33;;;7.17;;
3843;SDS011;1937;51.444;6.484;2022-12-18T08:51:21;10.47;;;6.60;;
3843;SDS011;1937;51.444;6.484;2022-12-18T08:53:49;14.73;;;8.53;;
3843;SDS011;1937;51.444;6.484;2022-12-18T08:56:17;12.40;;;8.40;;
3843;SDS011;1937;51.444;6.484;2022-12-18T08:58:45;11.83;;;6.80;;
3843;SDS011;1937;51.444;6.484;2022-12-18T09:01:16;13.33;;;7.97;;
3843;SDS011;1937;51.444;6.484;2022-12-18T09:03:47;11.80;;;7.30;;
3843;SDS011;1937;51.444;6.484;2022-12-18T09:06:16;10.13;;;6.33;;
3843;SDS011;1937;51.444;6.484;2022-12-18T09:08:46;13.80;;;7.97;;
3843;SDS011;1937;51.444;6.484;2022-12-18T09:11:18;10.43;;;5.90;;
3843;SDS011;1937;51.444;6.484;2022-12-18T09:13:49;13.10;;;7.47;;
3843;SDS011;1937;51.444;6.484;2022-12-18T09:16:20;14.30;;;7.07;;
3843;SDS011;1937;51.444;6.484;2022-12-18T09:18:50;12.83;;;6.10;;
3843;SDS011;1937;51.444;6.484;2022-12-18T09:21:24;11.70;;;6.93;;
3843;SDS011;1937;51.444;6.484;2022-12-18T09:23:56;15.60;;;7.10;;
3843;SDS011;1937;51.444;6.484;2022-12-18T09:26:25;18.53;;;8.77;;
3843;SDS011;1937;51.444;6.484;2022-12-18T09:28:54;11.90;;;6.43;;
3843;SDS011;1937;51.444;6.484;2022-12-18T09:31:23;13.83;;;6.70;;
3843;SDS011;1937;51.444;6.484;2022-12-18T09:33:52;8.10;;;6.13;;
3843;SDS011;1937;51.444;6.484;2022-12-18T09:36:22;14.40;;;7.57;;
3843;SDS011;1937;51.444;6.484;2022-12-18T09:38:51;13.13;;;7.70;;
3843;SDS011;1937;51.444;6.484;2022-12-18T09:44:10;14.97;;;6.67;;
3843;SDS011;1937;51.444;6.484;2022-12-18T09:46:43;14.03;;;7.80;;
3843;SDS011;1937;51.444;6.484;2022-12-18T09:49:19;12.97;;;7.63;;
3843;SDS011;1937;51.444;6.484;2022-12-18T09:51:53;12.90;;;7.60;;
3843;SDS011;1937;51.444;6.484;2022-12-18T09:54:26;16.07;;;7.73;;
3843;SDS011;1937;51.444;6.484;2022-12-18T09:56:59;9.53;;;7.40;;
3843;SDS011;1937;51.444;6.484;2022-12-18T09:59:29;15.27;;;7.77;;
3843;SDS011;1937;51.444;6.484;2022-12-18T10:02:10;12.93;;;8.20;;
3843;SDS011;1937;51.444;6.484;2022-12-18T10:04:41;15.00;;;8.07;;
3843;SDS011;1937;51.444;6.484;2022-12-18T10:07:13;13.87;;;6.97;;
3843;SDS011;1937;51.444;6.484;2022-12-18T10:09:50;10.90;;;8.10;;
3843;SDS011;1937;51.444;6.484;2022-12-18T10:12:28;15.17;;;7.93;;
3843;SDS011;1937;51.444;6.484;2022-12-18T10:15:05;14.63;;;7.33;;
3843;SDS011;1937;51.444;6.484;2022-12-18T10:17:41;10.00;;;6.23;;
3843;SDS011;1937;51.444;6.484;2022-12-18T10:20:20;10.63;;;6.90;;
3843;SDS011;1937;51.444;6.484;2022-12-18T10:22:57;16.07;;;8.13;;
3843;SDS011;1937;51.444;6.484;2022-12-18T10:25:39;8.43;;;6.30;;
3843;SDS011;1937;51.444;6.484;2022-12-18T10:28:19;13.03;;;7.07;;
3843;SDS011;1937;51.444;6.484;2022-12-18T10:30:50;9.10;;;6.13;;
3843;SDS011;1937;51.444;6.484;2022-12-18T10:33:19;12.03;;;6.47;;
3843;SDS011;1937;51.444;6.484;2022-12-18T10:35:51;15.00;;;8.20;;
3843;SDS011;1937;51.444;6.484;2022-12-18T10:38:21;12.10;;;7.67;;
3843;SDS011;1937;51.444;6.484;2022-12-18T10:40:51;15.43;;;7.47;;
3843;SDS011;1937;51.444;6.484;2022-12-18T10:43:22;16.17;;;8.23;;
3843;SDS011;1937;51.444;6.484;2022-12-18T10:45:58;19.40;;;10.70;;
3843;SDS011;1937;51.444;6.484;2022-12-18T10:48:26;12.53;;;7.53;;
3843;SDS011;1937;51.444;6.484;2022-12-18T10:50:57;10.53;;;7.07;;
3843;SDS011;1937;51.444;6.484;2022-12-18T10:53:28;16.20;;;8.40;;
3843;SDS011;1937;51.444;6.484;2022-12-18T10:56:00;15.73;;;8.57;;
3843;SDS011;1937;51.444;6.484;2022-12-18T10:58:32;13.53;;;7.37;;
3843;SDS011;1937;51.444;6.484;2022-12-18T11:01:03;11.90;;;6.37;;
3843;SDS011;1937;51.444;6.484;2022-12-18T11:03:33;16.60;;;7.77;;
3843;SDS011;1937;51.444;6.484;2022-12-18T11:06:09;15.30;;;7.70;;
3843;SDS011;1937;51.444;6.484;2022-12-18T11:08:40;21.73;;;9.67;;
3843;SDS011;1937;51.444;6.484;2022-12-18T11:11:15;17.90;;;7.23;;
3843;SDS011;1937;51.444;6.484;2022-12-18T11:13:50;16.60;;;8.40;;
3843;SDS011;1937;51.444;6.484;2022-12-18T11:16:25;16.37;;;8.60;;
3843;SDS011;1937;51.444;6.484;2022-12-18T11:19:07;16.83;;;8.67;;
3843;SDS011;1937;51.444;6.484;2022-12-18T11:21:40;15.90;;;7.90;;
3843;SDS011;1937;51.444;6.484;2022-12-18T11:24:15;13.60;;;8.20;;
3843;SDS011;1937;51.444;6.484;2022-12-18T11:26:49;13.53;;;7.30;;
3843;SDS011;1937;51.444;6.484;2022-12-18T11:29:20;14.53;;;8.17;;
3843;SDS011;1937;51.444;6.484;2022-12-18T11:32:04;15.70;;;8.30;;
3843;SDS011;1937;51.444;6.484;2022-12-18T11:35:03;11.87;;;8.43;;
3843;SDS011;1937;51.444;6.484;2022-12-18T11:37:39;14.73;;;7.97;;
3843;SDS011;1937;51.444;6.484;2022-12-18T11:40:15;11.83;;;7.13;;
3843;SDS011;1937;51.444;6.484;2022-12-18T11:42:50;15.90;;;8.40;;
3843;SDS011;1937;51.444;6.484;2022-12-18T11:45:28;13.00;;;8.73;;
3843;SDS011;1937;51.444;6.484;2022-12-18T11:48:03;15.23;;;8.13;;
3843;SDS011;1937;51.444;6.484;2022-12-18T11:50:44;13.50;;;8.60;;
3843;SDS011;1937;51.444;6.484;2022-12-18T11:53:17;15.00;;;9.07;;
3843;SDS011;1937;51.444;6.484;2022-12-18T11:55:49;16.60;;;7.90;;
3843;SDS011;1937;51.444;6.484;2022-12-18T12:01:21;16.70;;;7.97;;
3843;SDS011;1937;51.444;6.484;2022-12-18T12:04:03;13.37;;;7.67;;
3843;SDS011;1937;51.444;6.484;2022-12-18T12:06:41;13.67;;;8.67;;
3843;SDS011;1937;51.444;6.484;2022-12-18T12:09:19;13.03;;;7.07;;
3843;SDS011;1937;51.444;6.484;2022-12-18T12:11:56;19.07;;;7.83;;
3843;SDS011;1937;51.444;6.484;2022-12-18T12:14:37;11.17;;;8.70;;
3843;SDS011;1937;51.444;6.484;2022-12-18T12:17:15;20.17;;;8.67;;
3843;SDS011;1937;51.444;6.484;2022-12-18T12:19:48;17.10;;;9.43;;
3843;SDS011;1937;51.444;6.484;2022-12-18T12:22:28;23.07;;;9.00;;
3843;SDS011;1937;51.444;6.484;2022-12-18T12:25:07;18.83;;;9.33;;
3843;SDS011;1937;51.444;6.484;2022-12-18T12:27:48;15.27;;;9.00;;
3843;SDS011;1937;51.444;6.484;2022-12-18T12:30:26;19.47;;;9.60;;
3843;SDS011;1937;51.444;6.484;2022-12-18T12:33:05;16.50;;;8.90;;
3843;SDS011;1937;51.444;6.484;2022-12-18T12:35:44;16.63;;;9.13;;
3843;SDS011;1937;51.444;6.484;2022-12-18T12:38:19;14.73;;;8.63;;
3843;SDS011;1937;51.444;6.484;2022-12-18T12:40:52;18.53;;;9.27;;
3843;SDS011;1937;51.444;6.484;2022-12-18T12:43:27;25.13;;;11.50;;
3843;SDS011;1937;51.444;6.484;2022-12-18T12:46:00;15.33;;;8.77;;
3843;SDS011;1937;51.444;6.484;2022-12-18T12:48:34;25.87;;;11.20;;
3843;SDS011;1937;51.444;6.484;2022-12-18T12:51:08;18.80;;;9.63;;
3843;SDS011;1937;51.444;6.484;2022-12-18T12:53:38;18.30;;;8.73;;
3843;SDS011;1937;51.444;6.484;2022-12-18T12:56:10;19.57;;;10.40;;
3843;SDS011;1937;51.444;6.484;2022-12-18T12:58:43;19.50;;;11.07;;
3843;SDS011;1937;51.444;6.484;2022-12-18T13:01:22;18.27;;;9.50;;
3843;SDS011;1937;51.444;6.484;2022-12-18T13:03:56;17.03;;;7.93;;
3843;SDS011;1937;51.444;6.484;2022-12-18T13:06:37;17.67;;;8.87;;
3843;SDS011;1937;51.444;6.484;2022-12-18T13:09:09;22.20;;;9.60;;
3843;SDS011;1937;51.444;6.484;2022-12-18T13:11:39;23.50;;;11.77;;
3843;SDS011;1937;51.444;6.484;2022-12-18T13:14:42;17.10;;;8.80;;
3843;SDS011;1937;51.444;6.484;2022-12-18T13:17:21;18.10;;;9.60;;
3843;SDS011;1937;51.444;6.484;2022-12-18T13:20:03;16.27;;;9.60;;
3843;SDS011;1937;51.444;6.484;2022-12-18T13:22:34;23.60;;;10.50;;
3843;SDS011;1937;51.444;6.484;2022-12-18T13:28:11;21.90;;;10.90;;
3843;SDS011;1937;51.444;6.484;2022-12-18T13:30:41;17.60;;;10.03;;
3843;SDS011;1937;51.444;6.484;2022-12-18T13:36:29;15.13;;;9.97;;
3843;SDS011;1937;51.444;6.484;2022-12-18T13:39:10;17.20;;;8.80;;
3843;SDS011;1937;51.444;6.484;2022-12-18T13:41:47;18.30;;;10.57;;
3843;SDS011;1937;51.444;6.484;2022-12-18T13:44:24;20.53;;;11.40;;
3843;SDS011;1937;51.444;6.484;2022-12-18T13:46:57;21.30;;;9.80;;
3843;SDS011;1937;51.444;6.484;2022-12-18T13:49:27;15.70;;;10.40;;
3843;SDS011;1937;51.444;6.484;2022-12-18T13:52:03;26.43;;;10.83;;
3843;SDS011;1937;51.444;6.484;2022-12-18T13:54:42;18.83;;;9.80;;
3843;SDS011;1937;51.444;6.484;2022-12-18T13:57:25;17.80;;;10.03;;
3843;SDS011;1937;51.444;6.484;2022-12-18T13:59:56;21.33;;;9.73;;
3843;SDS011;1937;51.444;6.484;2022-12-18T14:02:44;20.43;;;11.83;;
3843;SDS011;1937;51.444;6.484;2022-12-18T14:05:21;20.73;;;10.20;;
3843;SDS011;1937;51.444;6.484;2022-12-18T14:07:50;20.00;;;9.20;;
3843;SDS011;1937;51.444;6.484;2022-12-18T14:10:19;19.43;;;11.10;;
3843;SDS011;1937;51.444;6.484;2022-12-18T14:12:50;21.03;;;11.17;;
3843;SDS011;1937;51.444;6.484;2022-12-18T14:15:25;23.60;;;10.50;;
3843;SDS011;1937;51.444;6.484;2022-12-18T14:17:59;20.47;;;10.67;;
3843;SDS011;1937;51.444;6.484;2022-12-18T14:20:47;17.80;;;11.20;;
3843;SDS011;1937;51.444;6.484;2022-12-18T14:23:27;19.40;;;10.57;;
3843;SDS011;1937;51.444;6.484;2022-12-18T14:25:58;20.27;;;10.37;;
3843;SDS011;1937;51.444;6.484;2022-12-18T14:28:29;19.90;;;10.37;;
3843;SDS011;1937;51.444;6.484;2022-12-18T14:30:59;20.40;;;10.77;;
3843;SDS011;1937;51.444;6.484;2022-12-18T14:33:27;21.90;;;11.57;;
3843;SDS011;1937;51.444;6.484;2022-12-18T14:35:57;20.10;;;10.90;;
3843;SDS011;1937;51.444;6.484;2022-12-18T14:38:28;27.13;;;12.80;;
3843;SDS011;1937;51.444;6.484;2022-12-18T14:40:59;34.83;;;14.03;;
3843;SDS011;1937;51.444;6.484;2022-12-18T14:43:31;20.27;;;11.37;;
3843;SDS011;1937;51.444;6.484;2022-12-18T14:46:03;24.00;;;10.83;;
3843;SDS011;1937;51.444;6.484;2022-12-18T14:48:51;22.43;;;10.97;;
3843;SDS011;1937;51.444;6.484;2022-12-18T14:51:21;23.30;;;11.47;;
3843;SDS011;1937;51.444;6.484;2022-12-18T14:53:53;25.50;;;11.70;;
3843;SDS011;1937;51.444;6.484;2022-12-18T14:56:24;24.97;;;12.07;;
3843;SDS011;1937;51.444;6.484;2022-12-18T14:58:54;23.53;;;13.43;;
3843;SDS011;1937;51.444;6.484;2022-12-18T15:01:27;19.23;;;10.70;;
3843;SDS011;1937;51.444;6.484;2022-12-18T15:03:58;23.43;;;11.13;;
3843;SDS011;1937;51.444;6.484;2022-12-18T15:06:32;27.87;;;12.63;;
3843;SDS011;1937;51.444;6.484;2022-12-18T15:09:03;23.67;;;13.87;;
3843;SDS011;1937;51.444;6.484;2022-12-18T15:11:48;28.60;;;11.63;;
3843;SDS011;1937;51.444;6.484;2022-12-18T15:14:21;19.40;;;10.40;;
3843;SDS011;1937;51.444;6.484;2022-12-18T15:16:58;23.80;;;12.40;;
3843;SDS011;1937;51.444;6.484;2022-12-18T15:19:32;19.60;;;11.57;;
3843;SDS011;1937;51.444;6.484;2022-12-18T15:22:03;20.40;;;11.60;;
3843;SDS011;1937;51.444;6.484;2022-12-18T15:24:39;22.40;;;12.10;;
3843;SDS011;1937;51.444;6.484;2022-12-18T15:27:18;26.40;;;11.20;;
3843;SDS011;1937;51.444;6.484;2022-12-18T15:29:58;20.67;;;11.07;;
3843;SDS011;1937;51.444;6.484;2022-12-18T15:32:27;25.93;;;13.77;;
3843;SDS011;1937;51.444;6.484;2022-12-18T15:35:02;23.23;;;11.40;;
3843;SDS011;1937;51.444;6.484;2022-12-18T15:37:29;32.63;;;13.90;;
3843;SDS011;1937;51.444;6.484;2022-12-18T15:40:00;16.83;;;10.67;;
3843;SDS011;1937;51.444;6.484;2022-12-18T15:42:28;25.37;;;14.43;;